sensor_id;sensor_type;location;lat;lon;timestamp;pressure;altitude;pressure_sealevel;temperature;humidity
72116;BME280;59991;52.140;5.428;2023-03-03T00:00:32;102573.66;;;0.98;94.13
72116;BME280;59991;52.140;5.428;2023-03-03T00:01:05;102581.22;;;0.96;93.76
72116;BME280;59991;52.140;5.428;2023-03-03T00:01:36;102575.31;;;0.94;94.19
72116;BME280;59991;52.140;5.428;2023-03-03T00:02:08;102576.13;;;0.94;94.47
72116;BME280;59991;52.140;5.428;2023-03-03T00:02:39;102577.72;;;0.95;94.51
72116;BME280;59991;52.140;5.428;2023-03-03T00:03:15;102578.81;;;0.94;94.47
72116;BME280;59991;52.140;5.428;2023-03-03T00:03:47;102575.56;;;0.92;94.31
72116;BME280;59991;52.140;5.428;2023-03-03T00:04:19;102578.81;;;0.94;94.12
72116;BME280;59991;52.140;5.428;2023-03-03T00:04:50;102575.31;;;0.94;94.52
72116;BME280;59991;52.140;5.428;2023-03-03T00:05:22;102575.84;;;0.91;94.16
72116;BME280;59991;52.140;5.428;2023-03-03T00:05:53;102581.75;;;0.93;94.19
72116;BME280;59991;52.140;5.428;2023-03-03T00:06:30;102572.06;;;0.87;94.19
72116;BME280;59991;52.140;5.428;2023-03-03T00:07:02;102570.47;;;0.86;94.14
72116;BME280;59991;52.140;5.428;2023-03-03T00:07:33;102578.53;;;0.91;94.39
72116;BME280;59991;52.140;5.428;2023-03-03T00:08:08;102572.88;;;0.87;94.38
72116;BME280;59991;52.140;5.428;2023-03-03T00:08:40;102572.34;;;0.90;94.37
72116;BME280;59991;52.140;5.428;2023-03-03T00:09:12;102579.88;;;0.88;94.55
72116;BME280;59991;52.140;5.428;2023-03-03T00:09:43;102579.88;;;0.88;94.55
72116;BME280;59991;52.140;5.428;2023-03-03T00:10:15;102579.06;;;0.88;94.32
72116;BME280;59991;52.140;5.428;2023-03-03T00:10:46;102572.06;;;0.87;94.66
72116;BME280;59991;52.140;5.428;2023-03-03T00:11:18;102574.22;;;0.85;94.44
72116;BME280;59991;52.140;5.428;2023-03-03T00:11:53;102580.94;;;0.87;94.38
72116;BME280;59991;52.140;5.428;2023-03-03T00:12:28;102580.13;;;0.87;94.44
72116;BME280;59991;52.140;5.428;2023-03-03T00:13:00;102578.78;;;0.84;94.60
72116;BME280;59991;52.140;5.428;2023-03-03T00:13:44;102574.22;;;0.80;94.36
72116;BME280;59991;52.140;5.428;2023-03-03T00:14:30;102579.31;;;0.81;94.60
72116;BME280;59991;52.140;5.428;2023-03-03T00:15:13;102577.47;;;0.77;94.76
72116;BME280;59991;52.140;5.428;2023-03-03T00:15:45;102579.84;;;0.78;94.44
72116;BME280;59991;52.140;5.428;2023-03-03T00:16:24;102579.03;;;0.78;94.81
72116;BME280;59991;52.140;5.428;2023-03-03T00:16:57;102572.09;;;0.77;94.63
72116;BME280;59991;52.140;5.428;2023-03-03T00:17:30;102574.47;;;0.78;94.79
72116;BME280;59991;52.140;5.428;2023-03-03T00:18:17;102580.94;;;0.77;94.79
72116;BME280;59991;52.140;5.428;2023-03-03T00:18:50;102571.78;;;0.78;94.89
72116;BME280;59991;52.140;5.428;2023-03-03T00:19:22;102577.47;;;0.77;95.14
72116;BME280;59991;52.140;5.428;2023-03-03T00:19:55;102582.03;;;0.76;94.92
72116;BME280;59991;52.140;5.428;2023-03-03T00:20:34;102580.16;;;0.77;95.45
72116;BME280;59991;52.140;5.428;2023-03-03T00:21:25;102572.88;;;0.77;95.32
72116;BME280;59991;52.140;5.428;2023-03-03T00:21:59;102576.66;;;0.76;95.15
72116;BME280;59991;52.140;5.428;2023-03-03T00:22:35;102575.56;;;0.77;95.29
72116;BME280;59991;52.140;5.428;2023-03-03T00:23:18;102583.91;;;0.76;95.33
72116;BME280;59991;52.140;5.428;2023-03-03T00:23:51;102577.72;;;0.70;95.29
72116;BME280;59991;52.140;5.428;2023-03-03T00:24:25;102588.19;;;0.72;95.39
72116;BME280;59991;52.140;5.428;2023-03-03T00:25:30;102587.66;;;0.69;95.54
72116;BME280;59991;52.140;5.428;2023-03-03T00:26:15;102583.09;;;0.70;95.80
72116;BME280;59991;52.140;5.428;2023-03-03T00:26:53;102586.59;;;0.71;95.62
72116;BME280;59991;52.140;5.428;2023-03-03T00:27:33;102583.91;;;0.71;95.85
72116;BME280;59991;52.140;5.428;2023-03-03T00:28:55;102591.94;;;0.71;96.36
72116;BME280;59991;52.140;5.428;2023-03-03T00:29:39;102590.88;;;0.72;96.40
72116;BME280;59991;52.140;5.428;2023-03-03T00:30:31;102593.56;;;0.72;96.60
72116;BME280;59991;52.140;5.428;2023-03-03T00:31:14;102593.56;;;0.72;96.54
72116;BME280;59991;52.140;5.428;2023-03-03T00:31:47;102592.75;;;0.71;96.46
72116;BME280;59991;52.140;5.428;2023-03-03T00:32:57;102590.34;;;0.69;96.89
72116;BME280;59991;52.140;5.428;2023-03-03T00:33:29;102596.25;;;0.72;97.11
72116;BME280;59991;52.140;5.428;2023-03-03T00:34:24;102598.94;;;0.72;97.16
72116;BME280;59991;52.140;5.428;2023-03-03T00:35:01;102601.63;;;0.72;97.28
72116;BME280;59991;52.140;5.428;2023-03-03T00:35:48;102595.72;;;0.69;97.00
72116;BME280;59991;52.140;5.428;2023-03-03T00:36:59;102601.06;;;0.69;97.47
72116;BME280;59991;52.140;5.428;2023-03-03T00:37:31;102595.97;;;0.68;97.67
72116;BME280;59991;52.140;5.428;2023-03-03T00:38:13;102602.16;;;0.68;97.51
72116;BME280;59991;52.140;5.428;2023-03-03T00:38:48;102598.91;;;0.66;97.50
72116;BME280;59991;52.140;5.428;2023-03-03T00:39:35;102600.53;;;0.67;97.86
72116;BME280;59991;52.140;5.428;2023-03-03T00:40:24;102598.38;;;0.64;97.66
72116;BME280;59991;52.140;5.428;2023-03-03T00:40:56;102598.38;;;0.64;97.67
72116;BME280;59991;52.140;5.428;2023-03-03T00:41:27;102596.78;;;0.63;97.80
72116;BME280;59991;52.140;5.428;2023-03-03T00:41:59;102597.31;;;0.65;98.00
72116;BME280;59991;52.140;5.428;2023-03-03T00:42:34;102598.66;;;0.63;98.01
72116;BME280;59991;52.140;5.428;2023-03-03T00:43:22;102601.06;;;0.64;97.88
72116;BME280;59991;52.140;5.428;2023-03-03T00:43:54;102600.53;;;0.62;98.13
72116;BME280;59991;52.140;5.428;2023-03-03T00:44:55;102593.28;;;0.63;98.06
72116;BME280;59991;52.140;5.428;2023-03-03T00:45:42;102598.66;;;0.63;98.03
72116;BME280;59991;52.140;5.428;2023-03-03T00:46:17;102597.84;;;0.62;98.18
72116;BME280;59991;52.140;5.428;2023-03-03T00:46:49;102597.28;;;0.60;98.12
72116;BME280;59991;52.140;5.428;2023-03-03T00:47:27;102601.84;;;0.60;98.26
72116;BME280;59991;52.140;5.428;2023-03-03T00:48:22;102594.06;;;0.58;98.15
72116;BME280;59991;52.140;5.428;2023-03-03T00:48:54;102596.75;;;0.58;98.49
72116;BME280;59991;52.140;5.428;2023-03-03T00:49:26;102603.22;;;0.57;98.14
72116;BME280;59991;52.140;5.428;2023-03-03T00:50:39;102603.22;;;0.57;98.27
72116;BME280;59991;52.140;5.428;2023-03-03T00:51:53;102597.06;;;0.57;98.30
72116;BME280;59991;52.140;5.428;2023-03-03T00:52:26;102591.94;;;0.55;98.48
72116;BME280;59991;52.140;5.428;2023-03-03T00:53:10;102598.63;;;0.58;98.68
72116;BME280;59991;52.140;5.428;2023-03-03T00:53:42;102586.56;;;0.55;98.53
72116;BME280;59991;52.140;5.428;2023-03-03T00:54:13;102598.63;;;0.58;98.82
72116;BME280;59991;52.140;5.428;2023-03-03T00:54:45;102591.38;;;0.58;98.08
72116;BME280;59991;52.140;5.428;2023-03-03T00:55:16;102605.34;;;0.60;98.44
72116;BME280;59991;52.140;5.428;2023-03-03T00:55:49;102602.66;;;0.60;98.59
72116;BME280;59991;52.140;5.428;2023-03-03T00:56:22;102602.94;;;0.59;98.65
72116;BME280;59991;52.140;5.428;2023-03-03T00:56:54;102599.19;;;0.60;98.69
72116;BME280;59991;52.140;5.428;2023-03-03T00:57:25;102594.38;;;0.57;99.05
72116;BME280;59991;52.140;5.428;2023-03-03T00:57:57;102603.22;;;0.57;98.46
72116;BME280;59991;52.140;5.428;2023-03-03T00:58:28;102606.41;;;0.59;98.83
72116;BME280;59991;52.140;5.428;2023-03-03T00:59:01;102598.13;;;0.56;99.00
72116;BME280;59991;52.140;5.428;2023-03-03T00:59:32;102597.56;;;0.59;98.72
72116;BME280;59991;52.140;5.428;2023-03-03T01:00:04;102600.25;;;0.59;99.09
72116;BME280;59991;52.140;5.428;2023-03-03T01:00:36;102599.72;;;0.57;99.12
72116;BME280;59991;52.140;5.428;2023-03-03T01:01:07;102596.75;;;0.58;99.46
72116;BME280;59991;52.140;5.428;2023-03-03T01:01:38;102606.41;;;0.59;98.90
72116;BME280;59991;52.140;5.428;2023-03-03T01:02:10;102597.84;;;0.57;98.95
72116;BME280;59991;52.140;5.428;2023-03-03T01:02:42;102604.28;;;0.56;99.17
72116;BME280;59991;52.140;5.428;2023-03-03T01:03:20;102604.81;;;0.58;99.04
72116;BME280;59991;52.140;5.428;2023-03-03T01:03:52;102603.22;;;0.57;99.00
72116;BME280;59991;52.140;5.428;2023-03-03T01:04:23;102605.09;;;0.57;98.91
72116;BME280;59991;52.140;5.428;2023-03-03T01:04:54;102610.72;;;0.60;99.11
72116;BME280;59991;52.140;5.428;2023-03-03T01:05:26;102604.00;;;0.58;98.81
72116;BME280;59991;52.140;5.428;2023-03-03T01:05:58;102608.03;;;0.60;98.86
72116;BME280;59991;52.140;5.428;2023-03-03T01:06:29;102602.94;;;0.59;99.08
72116;BME280;59991;52.140;5.428;2023-03-03T01:07:01;102607.78;;;0.62;98.88
72116;BME280;59991;52.140;5.428;2023-03-03T01:07:32;102609.66;;;0.61;99.08
72116;BME280;59991;52.140;5.428;2023-03-03T01:08:05;102611.81;;;0.64;98.66
72116;BME280;59991;52.140;5.428;2023-03-03T01:08:36;102606.44;;;0.64;98.93
72116;BME280;59991;52.140;5.428;2023-03-03T01:09:08;102608.03;;;0.65;98.82
72116;BME280;59991;52.140;5.428;2023-03-03T01:09:39;102606.16;;;0.66;98.78
72116;BME280;59991;52.140;5.428;2023-03-03T01:10:11;102607.25;;;0.65;98.85
72116;BME280;59991;52.140;5.428;2023-03-03T01:10:47;102604.28;;;0.66;98.60
72116;BME280;59991;52.140;5.428;2023-03-03T01:11:24;102611.28;;;0.67;98.78
72116;BME280;59991;52.140;5.428;2023-03-03T01:11:56;102611.28;;;0.67;98.59
72116;BME280;59991;52.140;5.428;2023-03-03T01:12:28;102609.41;;;0.68;98.47
72116;BME280;59991;52.140;5.428;2023-03-03T01:12:59;102603.47;;;0.66;98.26
72116;BME280;59991;52.140;5.428;2023-03-03T01:13:33;102607.78;;;0.67;98.65
72116;BME280;59991;52.140;5.428;2023-03-03T01:14:08;102604.28;;;0.66;98.72
72116;BME280;59991;52.140;5.428;2023-03-03T01:14:40;102604.03;;;0.68;98.54
72116;BME280;59991;52.140;5.428;2023-03-03T01:15:12;102608.84;;;0.66;98.67
72116;BME280;59991;52.140;5.428;2023-03-03T01:15:44;102601.34;;;0.68;98.66
72116;BME280;59991;52.140;5.428;2023-03-03T01:16:16;102615.31;;;0.70;98.68
72116;BME280;59991;52.140;5.428;2023-03-03T01:16:48;102612.09;;;0.68;98.56
72116;BME280;59991;52.140;5.428;2023-03-03T01:17:20;102614.22;;;0.66;98.60
72116;BME280;59991;52.140;5.428;2023-03-03T01:17:51;102615.56;;;0.63;98.89
72116;BME280;59991;52.140;5.428;2023-03-03T01:18:23;102614.50;;;0.64;98.66
72116;BME280;59991;52.140;5.428;2023-03-03T01:18:54;102612.63;;;0.65;98.52
72116;BME280;59991;52.140;5.428;2023-03-03T01:19:26;102612.06;;;0.63;98.88
72116;BME280;59991;52.140;5.428;2023-03-03T01:19:57;102616.38;;;0.64;98.90
72116;BME280;59991;52.140;5.428;2023-03-03T01:20:29;102609.13;;;0.64;99.13
72116;BME280;59991;52.140;5.428;2023-03-03T01:21:00;102607.78;;;0.62;99.13
72116;BME280;59991;52.140;5.428;2023-03-03T01:21:32;102610.72;;;0.65;98.87
72116;BME280;59991;52.140;5.428;2023-03-03T01:22:03;102608.84;;;0.66;98.95
72116;BME280;59991;52.140;5.428;2023-03-03T01:22:35;102600.25;;;0.64;98.74
72116;BME280;59991;52.140;5.428;2023-03-03T01:23:07;102607.50;;;0.63;99.17
72116;BME280;59991;52.140;5.428;2023-03-03T01:23:38;102613.41;;;0.65;99.12
72116;BME280;59991;52.140;5.428;2023-03-03T01:24:10;102609.94;;;0.65;99.31
72116;BME280;59991;52.140;5.428;2023-03-03T01:24:41;102604.53;;;0.60;99.08
72116;BME280;59991;52.140;5.428;2023-03-03T01:25:13;102605.88;;;0.62;99.29
72116;BME280;59991;52.140;5.428;2023-03-03T01:25:44;102606.16;;;0.61;99.29
72116;BME280;59991;52.140;5.428;2023-03-03T01:26:15;102607.78;;;0.62;99.07
72116;BME280;59991;52.140;5.428;2023-03-03T01:26:47;102607.50;;;0.63;99.28
72116;BME280;59991;52.140;5.428;2023-03-03T01:27:18;102605.88;;;0.62;99.21
72116;BME280;59991;52.140;5.428;2023-03-03T01:27:50;102601.59;;;0.61;99.10
72116;BME280;59991;52.140;5.428;2023-03-03T01:28:21;102604.00;;;0.63;99.46
72116;BME280;59991;52.140;5.428;2023-03-03T01:28:53;102604.81;;;0.63;99.12
72116;BME280;59991;52.140;5.428;2023-03-03T01:29:24;102594.63;;;0.60;99.26
72116;BME280;59991;52.140;5.428;2023-03-03T01:29:56;102602.13;;;0.63;99.15
72116;BME280;59991;52.140;5.428;2023-03-03T01:30:28;102607.25;;;0.65;99.19
72116;BME280;59991;52.140;5.428;2023-03-03T01:31:00;102603.75;;;0.64;99.32
72116;BME280;59991;52.140;5.428;2023-03-03T01:31:33;102606.16;;;0.66;99.25
72116;BME280;59991;52.140;5.428;2023-03-03T01:32:04;102601.59;;;0.66;99.30
72116;BME280;59991;52.140;5.428;2023-03-03T01:32:36;102605.09;;;0.67;99.07
72116;BME280;59991;52.140;5.428;2023-03-03T01:33:07;102597.31;;;0.65;99.22
72116;BME280;59991;52.140;5.428;2023-03-03T01:33:39;102604.28;;;0.66;99.30
72116;BME280;59991;52.140;5.428;2023-03-03T01:34:10;102603.47;;;0.66;98.95
72116;BME280;59991;52.140;5.428;2023-03-03T01:34:42;102599.19;;;0.65;99.29
72116;BME280;59991;52.140;5.428;2023-03-03T01:35:13;102605.09;;;0.67;99.18
72116;BME280;59991;52.140;5.428;2023-03-03T01:35:46;102603.47;;;0.66;99.27
72116;BME280;59991;52.140;5.428;2023-03-03T01:36:28;102604.28;;;0.66;99.30
72116;BME280;59991;52.140;5.428;2023-03-03T01:36:59;102609.66;;;0.66;99.22
72116;BME280;59991;52.140;5.428;2023-03-03T01:37:33;102608.84;;;0.66;99.53
72116;BME280;59991;52.140;5.428;2023-03-03T01:38:04;102609.94;;;0.65;99.30
72116;BME280;59991;52.140;5.428;2023-03-03T01:38:37;102604.81;;;0.63;99.07
72116;BME280;59991;52.140;5.428;2023-03-03T01:39:09;102609.66;;;0.66;99.48
72116;BME280;59991;52.140;5.428;2023-03-03T01:39:41;102602.69;;;0.65;99.19
72116;BME280;59991;52.140;5.428;2023-03-03T01:40:19;102606.16;;;0.66;98.97
72116;BME280;59991;52.140;5.428;2023-03-03T01:40:53;102606.44;;;0.64;99.15
72116;BME280;59991;52.140;5.428;2023-03-03T01:41:29;102602.69;;;0.65;99.27
72116;BME280;59991;52.140;5.428;2023-03-03T01:42:03;102602.69;;;0.65;99.25
72116;BME280;59991;52.140;5.428;2023-03-03T01:42:35;102608.56;;;0.62;99.17
72116;BME280;59991;52.140;5.428;2023-03-03T01:43:06;102607.25;;;0.65;99.08
72116;BME280;59991;52.140;5.428;2023-03-03T01:43:43;102612.06;;;0.63;99.53
72116;BME280;59991;52.140;5.428;2023-03-03T01:44:15;102609.66;;;0.61;99.34
72116;BME280;59991;52.140;5.428;2023-03-03T01:44:47;102611.25;;;0.62;99.63
72116;BME280;59991;52.140;5.428;2023-03-03T01:46:51;102608.31;;;0.64;99.28
72116;BME280;59991;52.140;5.428;2023-03-03T01:47:31;102604.81;;;0.63;99.59
72116;BME280;59991;52.140;5.428;2023-03-03T01:48:09;102607.50;;;0.63;99.42
72116;BME280;59991;52.140;5.428;2023-03-03T01:48:44;102612.06;;;0.63;99.20
72116;BME280;59991;52.140;5.428;2023-03-03T01:49:56;102613.94;;;0.62;99.21
72116;BME280;59991;52.140;5.428;2023-03-03T01:50:47;102616.09;;;0.60;99.45
72116;BME280;59991;52.140;5.428;2023-03-03T01:52:02;102609.09;;;0.59;99.52
72116;BME280;59991;52.140;5.428;2023-03-03T01:52:38;102609.91;;;0.60;99.24
72116;BME280;59991;52.140;5.428;2023-03-03T01:53:19;102612.59;;;0.60;99.49
72116;BME280;59991;52.140;5.428;2023-03-03T01:53:56;102605.88;;;0.62;99.35
72116;BME280;59991;52.140;5.428;2023-03-03T01:54:39;102602.41;;;0.62;99.37
72116;BME280;59991;52.140;5.428;2023-03-03T01:55:18;102607.50;;;0.63;99.80
72116;BME280;59991;52.140;5.428;2023-03-03T01:55:52;102612.06;;;0.63;99.18
72116;BME280;59991;52.140;5.428;2023-03-03T01:56:24;102605.63;;;0.59;99.54
72116;BME280;59991;52.140;5.428;2023-03-03T01:57:00;102611.25;;;0.62;99.50
72116;BME280;59991;52.140;5.428;2023-03-03T01:57:36;102609.38;;;0.63;99.70
72116;BME280;59991;52.140;5.428;2023-03-03T01:58:14;102611.53;;;0.61;99.26
72116;BME280;59991;52.140;5.428;2023-03-03T01:58:52;102609.13;;;0.64;99.17
72116;BME280;59991;52.140;5.428;2023-03-03T01:59:28;102608.56;;;0.62;99.22
72116;BME280;59991;52.140;5.428;2023-03-03T02:00:04;102610.19;;;0.63;99.22
72116;BME280;59991;52.140;5.428;2023-03-03T02:00:38;102609.38;;;0.63;99.40
72116;BME280;59991;52.140;5.428;2023-03-03T02:01:14;102607.78;;;0.62;99.57
72116;BME280;59991;52.140;5.428;2023-03-03T02:01:48;102608.56;;;0.62;99.25
72116;BME280;59991;52.140;5.428;2023-03-03T02:02:20;102611.00;;;0.64;99.17
72116;BME280;59991;52.140;5.428;2023-03-03T02:02:53;102605.63;;;0.64;99.21
72116;BME280;59991;52.140;5.428;2023-03-03T02:03:25;102613.41;;;0.65;99.04
72116;BME280;59991;52.140;5.428;2023-03-03T02:03:58;102611.81;;;0.64;99.18
72116;BME280;59991;52.140;5.428;2023-03-03T02:04:29;102609.13;;;0.64;99.29
72116;BME280;59991;52.140;5.428;2023-03-03T02:05:01;102610.72;;;0.65;99.19
72116;BME280;59991;52.140;5.428;2023-03-03T02:05:34;102608.31;;;0.64;99.29
72116;BME280;59991;52.140;5.428;2023-03-03T02:06:09;102614.50;;;0.64;98.93
72116;BME280;59991;52.140;5.428;2023-03-03T02:06:49;102611.00;;;0.64;98.92
72116;BME280;59991;52.140;5.428;2023-03-03T02:07:23;102618.78;;;0.65;99.35
72116;BME280;59991;52.140;5.428;2023-03-03T02:07:56;102607.50;;;0.63;99.26
72116;BME280;59991;52.140;5.428;2023-03-03T02:08:32;102613.41;;;0.65;99.22
72116;BME280;59991;52.140;5.428;2023-03-03T02:09:17;102612.63;;;0.65;98.90
72116;BME280;59991;52.140;5.428;2023-03-03T02:10:36;102613.69;;;0.64;99.11
72116;BME280;59991;52.140;5.428;2023-03-03T02:11:07;102609.38;;;0.63;98.80
72116;BME280;59991;52.140;5.428;2023-03-03T02:11:41;102605.88;;;0.62;98.88
72116;BME280;59991;52.140;5.428;2023-03-03T02:12:16;102612.06;;;0.63;99.19
72116;BME280;59991;52.140;5.428;2023-03-03T02:12:51;102603.72;;;0.59;99.29
72116;BME280;59991;52.140;5.428;2023-03-03T02:13:23;102603.22;;;0.62;99.24
72116;BME280;59991;52.140;5.428;2023-03-03T02:13:54;102606.97;;;0.61;99.37
72116;BME280;59991;52.140;5.428;2023-03-03T02:14:26;102606.97;;;0.61;99.12
72116;BME280;59991;52.140;5.428;2023-03-03T02:14:57;102606.97;;;0.61;99.16
72116;BME280;59991;52.140;5.428;2023-03-03T02:15:31;102607.50;;;0.63;99.37
72116;BME280;59991;52.140;5.428;2023-03-03T02:16:03;102607.22;;;0.60;99.23
72116;BME280;59991;52.140;5.428;2023-03-03T02:16:34;102610.19;;;0.58;99.31
72116;BME280;59991;52.140;5.428;2023-03-03T02:17:06;102613.13;;;0.62;99.11
72116;BME280;59991;52.140;5.428;2023-03-03T02:17:38;102611.25;;;0.62;99.48
72116;BME280;59991;52.140;5.428;2023-03-03T02:18:14;102607.78;;;0.62;99.06
72116;BME280;59991;52.140;5.428;2023-03-03T02:18:47;102604.28;;;0.61;99.26
72116;BME280;59991;52.140;5.428;2023-03-03T02:19:29;102606.97;;;0.61;99.36
72116;BME280;59991;52.140;5.428;2023-03-03T02:20:11;102607.78;;;0.62;99.03
72116;BME280;59991;52.140;5.428;2023-03-03T02:20:57;102607.50;;;0.63;98.93
72116;BME280;59991;52.140;5.428;2023-03-03T02:21:31;102605.09;;;0.62;98.87
72116;BME280;59991;52.140;5.428;2023-03-03T02:22:02;102612.88;;;0.63;98.86
72116;BME280;59991;52.140;5.428;2023-03-03T02:22:43;102603.75;;;0.64;98.88
72116;BME280;59991;52.140;5.428;2023-03-03T02:23:33;102605.63;;;0.64;99.13
72116;BME280;59991;52.140;5.428;2023-03-03T02:24:32;102611.81;;;0.64;98.73
72116;BME280;59991;52.140;5.428;2023-03-03T02:25:07;102608.31;;;0.64;98.67
72116;BME280;59991;52.140;5.428;2023-03-03T02:25:50;102605.34;;;0.60;98.61
72116;BME280;59991;52.140;5.428;2023-03-03T02:26:26;102609.09;;;0.59;98.83
72116;BME280;59991;52.140;5.428;2023-03-03T02:26:58;102600.53;;;0.57;98.82
72116;BME280;59991;52.140;5.428;2023-03-03T02:27:30;102604.81;;;0.58;98.93
72116;BME280;59991;52.140;5.428;2023-03-03T02:28:03;102604.28;;;0.56;98.61
72116;BME280;59991;52.140;5.428;2023-03-03T02:28:36;102605.91;;;0.57;98.74
72116;BME280;59991;52.140;5.428;2023-03-03T02:29:09;102611.28;;;0.57;98.83
72116;BME280;59991;52.140;5.428;2023-03-03T02:29:40;102607.50;;;0.58;98.67
72116;BME280;59991;52.140;5.428;2023-03-03T02:30:19;102614.47;;;0.59;98.77
72116;BME280;59991;52.140;5.428;2023-03-03T02:30:54;102608.28;;;0.59;99.05
72116;BME280;59991;52.140;5.428;2023-03-03T02:31:27;102602.69;;;0.55;98.62
72116;BME280;59991;52.140;5.428;2023-03-03T02:31:59;102601.31;;;0.58;98.97
72116;BME280;59991;52.140;5.428;2023-03-03T02:32:31;102609.91;;;0.60;99.14
72116;BME280;59991;52.140;5.428;2023-03-03T02:33:02;102605.34;;;0.60;99.05
72116;BME280;59991;52.140;5.428;2023-03-03T02:33:34;102607.78;;;0.62;98.97
72116;BME280;59991;52.140;5.428;2023-03-03T02:34:06;102607.78;;;0.62;99.36
72116;BME280;59991;52.140;5.428;2023-03-03T02:34:49;102613.94;;;0.62;98.59
72116;BME280;59991;52.140;5.428;2023-03-03T02:35:41;102614.75;;;0.63;98.55
72116;BME280;59991;52.140;5.428;2023-03-03T02:36:15;102609.38;;;0.63;98.65
72116;BME280;59991;52.140;5.428;2023-03-03T02:36:47;102609.91;;;0.60;98.69
72116;BME280;59991;52.140;5.428;2023-03-03T02:37:19;102614.75;;;0.63;98.67
72116;BME280;59991;52.140;5.428;2023-03-03T02:37:51;102610.72;;;0.60;98.52
72116;BME280;59991;52.140;5.428;2023-03-03T02:38:29;102607.78;;;0.62;98.53
72116;BME280;59991;52.140;5.428;2023-03-03T02:39:43;102608.03;;;0.60;98.35
72116;BME280;59991;52.140;5.428;2023-03-03T02:40:16;102609.91;;;0.60;98.53
72116;BME280;59991;52.140;5.428;2023-03-03T02:41:38;102607.22;;;0.60;98.20
72116;BME280;59991;52.140;5.428;2023-03-03T02:42:19;102602.66;;;0.60;98.25
72116;BME280;59991;52.140;5.428;2023-03-03T02:42:52;102604.81;;;0.58;98.61
72116;BME280;59991;52.140;5.428;2023-03-03T02:43:30;102600.53;;;0.57;98.14
72116;BME280;59991;52.140;5.428;2023-03-03T02:44:08;102604.53;;;0.60;98.18
72116;BME280;59991;52.140;5.428;2023-03-03T02:44:40;102610.19;;;0.58;98.33
72116;BME280;59991;52.140;5.428;2023-03-03T02:45:11;102602.13;;;0.58;98.15
72116;BME280;59991;52.140;5.428;2023-03-03T02:45:43;102606.69;;;0.58;98.12
72116;BME280;59991;52.140;5.428;2023-03-03T02:46:15;102600.81;;;0.56;98.50
72116;BME280;59991;52.140;5.428;2023-03-03T02:46:48;102602.13;;;0.53;98.87
72116;BME280;59991;52.140;5.428;2023-03-03T02:47:20;102601.59;;;0.56;98.69
72116;BME280;59991;52.140;5.428;2023-03-03T02:47:52;102598.38;;;0.54;98.93
72116;BME280;59991;52.140;5.428;2023-03-03T02:48:23;102603.22;;;0.57;99.05
72116;BME280;59991;52.140;5.428;2023-03-03T02:48:55;102615.53;;;0.58;99.09
72116;BME280;59991;52.140;5.428;2023-03-03T02:49:28;102608.28;;;0.59;98.69
72116;BME280;59991;52.140;5.428;2023-03-03T02:50:02;102608.28;;;0.59;99.05
72116;BME280;59991;52.140;5.428;2023-03-03T02:50:33;102603.50;;;0.56;99.17
72116;BME280;59991;52.140;5.428;2023-03-03T02:51:05;102604.00;;;0.58;98.72
72116;BME280;59991;52.140;5.428;2023-03-03T02:51:37;102606.69;;;0.58;98.87
72116;BME280;59991;52.140;5.428;2023-03-03T02:52:09;102600.25;;;0.59;98.93
72116;BME280;59991;52.140;5.428;2023-03-03T02:52:41;102600.53;;;0.57;99.24
72116;BME280;59991;52.140;5.428;2023-03-03T02:53:13;102605.91;;;0.57;99.12
72116;BME280;59991;52.140;5.428;2023-03-03T02:53:44;102602.94;;;0.59;99.18
72116;BME280;59991;52.140;5.428;2023-03-03T02:54:18;102606.41;;;0.59;98.78
72116;BME280;59991;52.140;5.428;2023-03-03T02:54:50;102602.13;;;0.58;99.04
72116;BME280;59991;52.140;5.428;2023-03-03T02:55:22;102601.06;;;0.59;99.01
72116;BME280;59991;52.140;5.428;2023-03-03T02:55:53;102602.66;;;0.60;99.36
72116;BME280;59991;52.140;5.428;2023-03-03T02:56:25;102612.34;;;0.61;99.33
72116;BME280;59991;52.140;5.428;2023-03-03T02:56:57;102603.22;;;0.62;99.21
72116;BME280;59991;52.140;5.428;2023-03-03T02:57:29;102609.66;;;0.61;99.23
72116;BME280;59991;52.140;5.428;2023-03-03T02:58:01;102604.28;;;0.61;98.93
72116;BME280;59991;52.140;5.428;2023-03-03T02:58:32;102609.38;;;0.63;98.98
72116;BME280;59991;52.140;5.428;2023-03-03T02:59:04;102606.44;;;0.64;99.01
72116;BME280;59991;52.140;5.428;2023-03-03T02:59:35;102608.84;;;0.66;99.14
72116;BME280;59991;52.140;5.428;2023-03-03T03:00:07;102612.63;;;0.65;98.88
72116;BME280;59991;52.140;5.428;2023-03-03T03:00:39;102615.03;;;0.66;98.83
72116;BME280;59991;52.140;5.428;2023-03-03T03:01:10;102608.84;;;0.66;99.09
72116;BME280;59991;52.140;5.428;2023-03-03T03:01:43;102601.06;;;0.64;98.85
72116;BME280;59991;52.140;5.428;2023-03-03T03:02:14;102605.38;;;0.65;99.23
72116;BME280;59991;52.140;5.428;2023-03-03T03:02:46;102612.88;;;0.68;98.90
72116;BME280;59991;52.140;5.428;2023-03-03T03:03:17;102617.19;;;0.69;98.64
72116;BME280;59991;52.140;5.428;2023-03-03T03:03:49;102612.63;;;0.70;98.72
72116;BME280;59991;52.140;5.428;2023-03-03T03:04:23;102612.88;;;0.68;98.82
72116;BME280;59991;52.140;5.428;2023-03-03T03:04:55;102616.13;;;0.71;98.67
72116;BME280;59991;52.140;5.428;2023-03-03T03:05:26;102607.53;;;0.68;98.82
72116;BME280;59991;52.140;5.428;2023-03-03T03:05:58;102613.97;;;0.67;98.44
72116;BME280;59991;52.140;5.428;2023-03-03T03:06:29;102612.88;;;0.68;98.49
72116;BME280;59991;52.140;5.428;2023-03-03T03:07:00;102615.56;;;0.68;98.47
72116;BME280;59991;52.140;5.428;2023-03-03T03:07:32;102615.03;;;0.66;98.10
72116;BME280;59991;52.140;5.428;2023-03-03T03:08:03;102615.03;;;0.66;98.34
72116;BME280;59991;52.140;5.428;2023-03-03T03:08:35;102605.63;;;0.64;98.28
72116;BME280;59991;52.140;5.428;2023-03-03T03:09:07;102613.69;;;0.64;98.55
72116;BME280;59991;52.140;5.428;2023-03-03T03:09:39;102615.56;;;0.63;98.48
72116;BME280;59991;52.140;5.428;2023-03-03T03:10:11;102608.56;;;0.62;98.60
72116;BME280;59991;52.140;5.428;2023-03-03T03:10:42;102612.06;;;0.63;98.38
72116;BME280;59991;52.140;5.428;2023-03-03T03:11:13;102610.47;;;0.62;98.40